Aérodrome :
LOGIN :

S'inscrire | Disclaimer

   EN    FR    IT 

 










Légende :    VFR   VFR Marginal   IFR   IFR Intensif   IFR Très Intensif
Visi : 
Plafond : 
>= 8 km
>= 3000ft
5 à 8 km
1000 à 3000 ft
1500m à 5 km
500 à 1000 ft
800 à 1500m
200 à 500 ft
< 800m
< 200 ft
Symboles :   Orages  Brouillard  Fortes neiges  Fortes précipitations  Vent > 20 kt
SIGMETs :   Divers  Orages  Givrage  Turbulence  Onde Orograph.  Cendres Volcan.






- Altitude de l'aérodrome : 1161 ft
- Code IATA : RJL


LELO - Logroño-Agoncillo

DERNIER METAR :
  • 210800Z VRB02KT 6000 OVC007 06/05 Q1007

METARs EXPIRÉS :
  • 210730Z 00000KT 6000 OVC007 06/05 Q1007
  • 210700Z VRB01KT 7000 OVC007 06/05 Q1006
  • 210630Z VRB02KT 7000 OVC007 05/04 Q1006
  • 210600Z VRB02KT 7000 OVC007 06/05 Q1006
  • 210530Z 11003KT 070V150 7000 OVC007 06/05 Q1006

TAF TAF LELO
Valide du 21 à 06h jusqu'au 21 à 15h UTC


210500Z 2106/2115 VRB02KT 9999 BKN008
PROB30
TEMPO 2106/2110 0400 BCFG BKN003



MET'MAP, la Météo Aéronautique d'un coup d'oeil ! - Copyright ORBIFLY Décembre 2007 - Disclaimer

ORBIFLY MET'MAP TEAM :

Programmation & Développement : Alexandra Zaïnal
Conception & Développement : Baudouin d'Aumeries
Co-Programmation & Développement : Marc-Olivier Méhu
Soutien technique & logistique : Manuel Goepfert

Contact : metmap@orbifly.com




SOURCES & CREDITS :

   NOAA